Time;durP1;ratioP1;P1;durP2;ratioP2;P2;SDS_P1;SDS_P2;PMS_P1;PMS_P2;Temp;Humidity;BMP_temperature;BMP_pressure;BME280_temperature;BME280_humidity;BME280_pressure;Samples;Min_cycle;Max_cycle;Signal;HPM_P1;HPM_P2
2022/11/05 00:10:09;;;;;;;3.00;2.70;;;;;;;9.19;77.03;101431.88;4789966;29;20100;-89
2022/11/05 00:18:03;;;;;;;4.40;3.30;;;;;;;8.84;77.99;101435.34;4796958;29;20060;-89
2022/11/05 00:20:28;;;;;;;4.53;3.13;;;;;;;8.72;76.63;101433.88;4777515;29;20055;-88
2022/11/05 00:26:00;;;;;;;6.43;3.03;;;;;;;8.68;78.06;101450.69;4794062;29;20074;-89
2022/11/05 00:28:27;;;;;;;4.80;3.05;;;;;;;8.58;78.00;101442.09;4797646;29;20039;-88
2022/11/05 00:30:53;;;;;;;3.92;3.28;;;;;;;8.48;77.84;101442.31;4794707;29;20058;-89
2022/11/05 00:33:18;;;;;;;5.80;4.03;;;;;;;8.36;78.65;101449.59;4781112;29;20110;-89
2022/11/05 00:35:44;;;;;;;5.88;3.80;;;;;;;8.28;79.07;101456.75;4800021;29;20035;-89
2022/11/05 00:38:09;;;;;;;5.47;3.50;;;;;;;8.15;79.30;101439.47;4787889;29;20016;-89
2022/11/05 00:40:35;;;;;;;6.07;3.72;;;;;;;8.03;79.58;101450.28;4799346;29;20027;-89
2022/11/05 00:45:44;;;;;;;6.55;3.35;;;;;;;7.82;80.07;101462.06;4799728;29;20076;-88
2022/11/05 00:50:53;;;;;;;5.32;3.60;;;;;;;7.59;79.14;101465.97;4794183;29;20049;-89
2022/11/05 00:53:18;;;;;;;5.80;3.20;;;;;;;7.55;79.84;101466.94;4804780;29;20425;-89
2022/11/05 00:55:44;;;;;;;3.58;3.22;;;;;;;7.63;79.79;101483.44;4805696;29;20706;-89
2022/11/05 00:58:16;;;;;;;3.72;3.00;;;;;;;7.39;79.53;101452.31;4776962;29;20712;-88
2022/11/05 01:00:43;;;;;;;3.45;2.88;;;;;;;7.48;79.23;101478.47;4803770;29;20471;-88
2022/11/05 01:03:14;;;;;;;4.55;2.85;;;;;;;7.44;79.72;101468.03;4793322;29;20034;-88
2022/11/05 01:05:48;;;;;;;3.58;3.28;;;;;;;7.41;79.30;101469.81;4797701;29;20492;-89
2022/11/05 01:08:15;;;;;;;4.85;3.25;;;;;;;7.46;79.13;101487.25;4774418;29;20352;-88
2022/11/05 01:10:43;;;;;;;4.60;3.28;;;;;;;7.44;80.10;101500.47;4804287;29;20038;-88
2022/11/05 01:13:09;;;;;;;7.05;3.33;;;;;;;7.35;79.58;101469.03;4801735;29;20031;-89
2022/11/05 01:15:36;;;;;;;7.45;3.72;;;;;;;7.44;79.81;101492.56;4796702;29;20503;-89
2022/11/05 01:18:02;;;;;;;7.60;3.65;;;;;;;7.49;79.78;101503.00;4792996;29;20152;-89
2022/11/05 01:20:27;;;;;;;6.28;3.60;;;;;;;7.38;79.15;101490.91;4803370;29;20133;-89
2022/11/05 01:22:52;;;;;;;6.57;3.85;;;;;;;7.35;80.17;101490.94;4803353;29;20123;-88
2022/11/05 01:25:18;;;;;;;5.75;4.07;;;;;;;7.40;79.57;101509.28;4790629;29;20043;-89
2022/11/05 01:27:43;;;;;;;6.45;4.32;;;;;;;7.35;79.79;101492.72;4785496;29;20526;-88
2022/11/05 01:30:09;;;;;;;4.30;3.70;;;;;;;7.37;79.56;101504.09;4798745;29;20041;-88
2022/11/05 01:32:36;;;;;;;5.47;3.70;;;;;;;7.44;79.55;101521.50;4773370;29;20497;-89
2022/11/05 01:35:03;;;;;;;4.50;3.90;;;;;;;7.34;80.04;101507.63;4804654;29;20046;-88
2022/11/05 01:37:28;;;;;;;6.30;3.90;;;;;;;7.31;78.96;101507.66;4796389;29;20028;-88
2022/11/05 01:39:53;;;;;;;5.47;3.85;;;;;;;7.30;79.28;101512.97;4788051;29;20045;-89
2022/11/05 01:42:22;;;;;;;6.05;4.18;;;;;;;7.33;80.24;101526.09;4798952;29;20024;-89
2022/11/05 01:44:58;;;;;;;5.70;3.80;;;;;;;7.32;79.73;101524.31;4797559;29;20041;-88
2022/11/05 01:47:56;;;;;;;5.22;3.72;;;;;;;7.36;79.12;101528.63;4776505;29;20053;-88
2022/11/05 01:50:30;;;;;;;3.88;3.47;;;;;;;7.34;79.49;101523.41;4786387;29;20042;-88
2022/11/05 01:53:01;;;;;;;6.70;4.30;;;;;;;7.25;79.82;101512.16;4797595;29;20035;-88
2022/11/05 01:55:32;;;;;;;5.13;4.00;;;;;;;7.19;80.52;101504.38;4775706;29;20395;-89
2022/11/05 01:58:00;;;;;;;6.85;4.07;;;;;;;7.14;80.47;101510.59;4792642;29;20034;-89
2022/11/05 02:00:26;;;;;;;6.25;3.80;;;;;;;7.14;79.93;101509.72;4792464;29;20039;-88
2022/11/05 02:02:52;;;;;;;5.07;3.55;;;;;;;7.17;80.11;101520.16;4792348;29;20040;-90
2022/11/05 02:05:17;;;;;;;6.07;3.88;;;;;;;7.07;79.42;101503.66;4798117;29;20042;-88
2022/11/05 02:07:45;;;;;;;6.15;3.75;;;;;;;7.04;79.12;101494.94;4798162;29;20118;-88
2022/11/05 02:10:13;;;;;;;4.30;3.78;;;;;;;7.09;79.42;101504.53;4787184;29;20058;-88
2022/11/05 02:12:42;;;;;;;6.05;4.03;;;;;;;6.92;79.86;101482.88;4782224;29;20487;-88
2022/11/05 02:15:14;;;;;;;7.55;4.28;;;;;;;6.98;79.61;101498.53;4793178;29;20035;-88
2022/11/05 02:18:08;;;;;;;6.10;3.92;;;;;;;6.99;79.54;101508.16;4792170;29;20027;-88
2022/11/05 02:20:54;;;;;;;7.53;3.58;;;;;;;6.95;79.20;101508.22;4800092;29;20055;-88
2022/11/05 02:23:53;;;;;;;6.10;4.20;;;;;;;6.97;79.41;101509.09;4783228;29;20094;-88
2022/11/05 02:26:46;;;;;;;7.15;3.47;;;;;;;6.98;78.97;101509.06;4775648;29;20113;-88
2022/11/05 02:29:43;;;;;;;4.95;3.55;;;;;;;6.88;78.91;101499.56;4801005;29;20043;-88
2022/11/05 02:32:22;;;;;;;4.53;3.30;;;;;;;6.75;79.10;101490.13;4798492;29;20039;-89
2022/11/05 02:35:14;;;;;;;5.43;2.95;;;;;;;6.84;78.55;101500.50;4779689;30;20488;-89
2022/11/05 02:37:48;;;;;;;4.60;3.53;;;;;;;6.74;79.22;101489.25;4771153;30;20580;-89
2022/11/05 02:40:26;;;;;;;5.28;3.50;;;;;;;6.69;79.28;101490.22;4780827;29;20346;-88
2022/11/05 02:43:16;;;;;;;6.43;3.45;;;;;;;6.69;78.98;101493.72;4779483;30;20042;-89
2022/11/05 02:45:41;;;;;;;5.60;3.58;;;;;;;6.65;79.76;101489.38;4793347;29;20027;-89
2022/11/05 02:48:22;;;;;;;5.80;3.83;;;;;;;6.66;78.75;101501.63;4778928;30;20545;-88
2022/11/05 02:50:57;;;;;;;5.88;4.03;;;;;;;6.64;79.88;101506.91;4769529;29;20281;-88
2022/11/05 02:53:46;;;;;;;6.75;4.20;;;;;;;6.56;79.63;101481.63;4773073;29;20031;-88
2022/11/05 02:56:21;;;;;;;6.53;4.63;;;;;;;6.61;79.36;101500.81;4780587;29;20064;-88
2022/11/05 02:58:46;;;;;;;5.72;4.32;;;;;;;6.53;79.54;101490.44;4773798;30;20084;-89
2022/11/05 03:01:11;;;;;;;8.32;5.18;;;;;;;6.49;80.18;101493.97;4795946;29;20035;-88
2022/11/05 03:03:46;;;;;;;5.72;4.72;;;;;;;6.51;80.41;101491.31;4791424;29;20035;-89
2022/11/05 03:06:30;;;;;;;6.68;4.80;;;;;;;6.56;80.26;101497.38;4791328;29;20043;-88
2022/11/05 03:09:08;;;;;;;9.23;5.03;;;;;;;6.49;80.27;101487.88;4794394;29;20476;-89
2022/11/05 03:11:49;;;;;;;6.40;4.40;;;;;;;6.44;80.21;101484.44;4801047;29;20095;-88
2022/11/05 03:14:23;;;;;;;7.47;4.63;;;;;;;6.49;80.83;101495.75;4774379;29;20040;-88
2022/11/05 03:16:58;;;;;;;13.48;4.95;;;;;;;6.48;80.45;101496.59;4793307;29;20031;-88
2022/11/05 03:19:45;;;;;;;9.35;5.00;;;;;;;6.49;79.75;101499.22;4791045;29;20198;-88
2022/11/05 03:22:14;;;;;;;9.55;4.93;;;;;;;6.44;79.97;101500.19;4772618;30;20070;-88
2022/11/05 03:24:47;;;;;;;5.85;5.18;;;;;;;6.36;80.69;101492.38;4771630;30;20038;-88
2022/11/05 03:27:18;;;;;;;7.15;5.47;;;;;;;6.39;80.69;101506.34;4774066;30;20032;-88
2022/11/05 03:29:51;;;;;;;8.50;5.53;;;;;;;6.32;80.70;101486.31;4772657;30;20068;-88
2022/11/05 03:32:21;;;;;;;9.88;5.88;;;;;;;6.31;80.68;101495.06;4779319;29;20118;-88
2022/11/05 03:34:50;;;;;;;7.85;5.22;;;;;;;6.33;80.57;101505.53;4767311;30;20114;-89
2022/11/05 03:37:21;;;;;;;9.27;5.82;;;;;;;6.17;81.10;101476.00;4748539;30;20512;-88
2022/11/05 03:39:50;;;;;;;8.85;6.03;;;;;;;6.26;81.26;101501.28;4765856;30;20555;-88
2022/11/05 03:42:19;;;;;;;7.63;6.20;;;;;;;6.18;81.73;101497.84;4779217;30;20039;-89
2022/11/05 03:44:50;;;;;;;8.77;5.68;;;;;;;6.15;81.66;101498.75;4776556;30;20031;-88
2022/11/05 03:47:20;;;;;;;7.53;5.93;;;;;;;6.16;80.84;101510.16;4772398;29;20097;-89
2022/11/05 03:50:27;;;;;;;9.73;6.57;;;;;;;6.12;80.79;101499.66;4762057;30;20031;-88
2022/11/05 03:52:59;;;;;;;11.48;6.70;;;;;;;6.13;80.81;101505.78;4732963;30;20120;-88
2022/11/05 03:55:48;;;;;;;9.48;7.30;;;;;;;6.18;81.42;101514.47;4777202;30;20036;-88
2022/11/05 03:58:14;;;;;;;10.20;6.63;;;;;;;6.03;80.73;101491.91;4769334;30;20462;-89
2022/11/05 04:00:40;;;;;;;9.35;6.50;;;;;;;6.02;80.63;101491.91;4778858;30;20493;-89
2022/11/05 04:03:05;;;;;;;10.10;6.85;;;;;;;6.14;81.47;101513.63;4753440;30;20038;-88
2022/11/05 04:05:30;;;;;;;13.88;7.60;;;;;;;6.04;82.27;101501.50;4779275;29;20544;-89
2022/11/05 04:13:24;;;;;;;10.90;7.70;;;;;;;5.93;81.95;101492.88;4773978;29;20420;-89
2022/11/05 04:18:35;;;;;;;11.88;7.43;;;;;;;6.01;82.17;101506.78;4765925;29;20050;-88
2022/11/05 04:26:28;;;;;;;13.35;7.80;;;;;;;5.99;81.66;101519.06;4781394;29;20118;-88
2022/11/05 04:31:37;;;;;;;12.88;7.57;;;;;;;5.93;81.51;101513.88;4800046;29;20054;-89
2022/11/05 04:34:03;;;;;;;12.52;8.32;;;;;;;6.00;81.63;101530.44;4791772;29;20043;-89
2022/11/05 04:36:28;;;;;;;11.05;8.75;;;;;;;5.91;82.03;101520.84;4804228;29;20026;-89
2022/11/05 04:38:54;;;;;;;12.65;8.95;;;;;;;5.92;82.28;101529.63;4775185;29;20026;-89
2022/11/05 04:41:19;;;;;;;12.63;8.55;;;;;;;5.85;82.24;101515.66;4798624;29;20141;-89
2022/11/05 04:43:44;;;;;;;11.07;8.60;;;;;;;5.83;81.50;101518.31;4772774;30;20058;-89
2022/11/05 04:46:10;;;;;;;12.32;8.50;;;;;;;5.83;82.51;101526.19;4778450;29;20031;-89
2022/11/05 04:48:36;;;;;;;13.35;8.50;;;;;;;5.90;82.25;101532.25;4791869;29;20045;-89
2022/11/05 04:51:01;;;;;;;10.95;8.27;;;;;;;5.90;81.55;101540.13;4802816;29;20038;-89
2022/11/05 04:53:27;;;;;;;10.48;7.82;;;;;;;5.80;82.09;101523.59;4786819;29;20085;-89
2022/11/05 04:55:52;;;;;;;11.95;8.57;;;;;;;5.84;82.17;101532.31;4787515;29;20027;-89
2022/11/05 04:58:18;;;;;;;12.18;8.40;;;;;;;5.95;82.20;101543.59;4775267;29;20023;-89
2022/11/05 05:00:43;;;;;;;11.95;8.68;;;;;;;5.88;81.40;101537.50;4797733;29;20039;-89
2022/11/05 05:03:08;;;;;;;13.55;9.10;;;;;;;5.86;81.44;101546.28;4801445;29;20399;-89
2022/11/05 05:05:34;;;;;;;19.25;9.00;;;;;;;5.88;81.54;101555.00;4793762;29;20031;-89
2022/11/05 05:08:00;;;;;;;12.40;8.93;;;;;;;5.74;81.82;101528.91;4790083;29;20065;-88
2022/11/05 05:10:26;;;;;;;14.00;9.32;;;;;;;5.87;81.85;101546.28;4801216;29;20038;-88
2022/11/05 05:12:51;;;;;;;17.13;9.30;;;;;;;5.86;81.88;101543.66;4775140;29;20121;-88
2022/11/05 05:15:16;;;;;;;16.00;9.15;;;;;;;5.85;81.46;101548.03;4795295;29;20045;-89
2022/11/05 05:17:42;;;;;;;13.13;8.60;;;;;;;5.77;81.45;101544.59;4780556;29;20683;-89
2022/11/05 05:22:52;;;;;;;10.55;8.60;;;;;;;5.83;81.72;101562.94;4778134;30;20204;-89
2022/11/05 05:25:17;;;;;;;14.07;9.60;;;;;;;5.80;82.16;101555.06;4765263;29;20036;-89
2022/11/05 05:27:43;;;;;;;14.60;8.65;;;;;;;5.78;81.36;101566.44;4781736;30;20039;-89
2022/11/05 05:30:08;;;;;;;15.55;8.80;;;;;;;5.73;81.25;101560.38;4784477;30;20031;-88
2022/11/05 05:32:34;;;;;;;12.27;8.60;;;;;;;5.68;81.08;101554.31;4794319;29;20039;-89
2022/11/05 05:34:59;;;;;;;15.32;9.20;;;;;;;5.58;81.77;101540.41;4767230;30;20032;-89
2022/11/05 05:37:24;;;;;;;11.93;9.07;;;;;;;5.61;81.69;101553.50;4774753;30;20028;-89
2022/11/05 05:39:50;;;;;;;14.65;9.52;;;;;;;5.59;81.13;101556.13;4765814;29;20043;-89
2022/11/05 05:42:15;;;;;;;13.43;8.77;;;;;;;5.47;80.45;101550.97;4771800;30;20035;-89
2022/11/05 05:44:40;;;;;;;12.95;7.95;;;;;;;5.48;80.24;101559.72;4785877;29;20042;-89
2022/11/05 05:47:05;;;;;;;15.20;8.88;;;;;;;5.51;81.49;101568.44;4774523;30;20389;-88
2022/11/05 05:49:31;;;;;;;14.10;9.60;;;;;;;5.46;81.75;101561.50;4779891;29;20038;-89
2022/11/05 05:51:56;;;;;;;11.45;8.32;;;;;;;5.46;81.79;101564.97;4783490;29;20551;-89
2022/11/05 05:54:21;;;;;;;13.02;9.10;;;;;;;5.50;81.16;101569.31;4776176;30;20075;-88
2022/11/05 05:56:47;;;;;;;14.10;8.73;;;;;;;5.37;81.39;101554.56;4779392;29;20038;-88
2022/11/05 05:59:12;;;;;;;13.32;9.00;;;;;;;5.38;82.62;101549.28;4776381;29;20039;-88
2022/11/05 06:01:38;;;;;;;12.93;8.52;;;;;;;5.50;81.78;101566.72;4785340;29;20027;-89
2022/11/05 06:04:03;;;;;;;17.02;10.00;;;;;;;5.46;82.55;101561.50;4776327;29;20032;-88
2022/11/05 06:06:29;;;;;;;15.57;10.07;;;;;;;5.56;82.23;101568.41;4768804;30;20058;-88
2022/11/05 06:08:55;;;;;;;15.80;9.52;;;;;;;5.52;81.68;101561.44;4768705;30;20278;-88
2022/11/05 06:11:21;;;;;;;12.32;8.88;;;;;;;5.56;82.08;101569.28;4772391;30;20061;-89
2022/11/05 06:13:47;;;;;;;16.13;9.20;;;;;;;5.56;82.13;101569.28;4768412;30;20032;-89
2022/11/05 06:16:12;;;;;;;14.27;8.65;;;;;;;5.53;81.83;101569.28;4777854;29;20528;-88
2022/11/05 06:18:37;;;;;;;14.73;10.15;;;;;;;5.52;82.43;101567.56;4777078;29;20145;-89
2022/11/05 06:21:15;;;;;;;14.18;9.60;;;;;;;5.63;82.24;101588.44;4774720;29;20055;-89
2022/11/05 06:23:42;;;;;;;17.65;10.45;;;;;;;5.51;82.17;101570.19;4794056;29;20152;-89
2022/11/05 06:26:11;;;;;;;16.05;9.30;;;;;;;5.55;82.17;101588.53;4790160;29;20042;-89
2022/11/05 06:28:36;;;;;;;12.23;9.48;;;;;;;5.47;82.22;101573.72;4794182;29;20031;-89
2022/11/05 06:31:03;;;;;;;17.20;9.57;;;;;;;5.60;82.26;101591.09;4780618;29;20033;-88
2022/11/05 06:33:28;;;;;;;14.75;9.82;;;;;;;5.54;82.59;101578.88;4787555;29;20031;-89
2022/11/05 06:35:56;;;;;;;11.27;8.60;;;;;;;5.58;82.12;101585.84;4791750;29;20511;-89
2022/11/05 06:38:21;;;;;;;14.55;9.48;;;;;;;5.44;81.92;101579.84;4793022;29;20032;-88
2022/11/05 06:40:47;;;;;;;16.83;9.48;;;;;;;5.57;82.60;101592.00;4800922;29;20041;-89
2022/11/05 06:43:12;;;;;;;12.77;8.65;;;;;;;5.55;82.08;101590.28;4803929;29;20071;-89
2022/11/05 06:45:37;;;;;;;20.73;9.57;;;;;;;5.49;82.47;101580.69;4768542;30;20635;-88
2022/11/05 06:48:03;;;;;;;12.30;9.00;;;;;;;5.52;81.83;101580.66;4783344;29;20063;-88
2022/11/05 06:50:28;;;;;;;17.00;8.82;;;;;;;5.62;82.24;101592.81;4800149;29;20492;-89
2022/11/05 06:52:55;;;;;;;11.50;8.43;;;;;;;5.65;82.35;101598.94;4779645;29;20026;-89
2022/11/05 06:55:21;;;;;;;18.38;9.23;;;;;;;5.66;82.61;101593.69;4774491;29;20531;-89
2022/11/05 06:57:46;;;;;;;13.88;8.88;;;;;;;5.55;82.32;101587.66;4777556;29;20114;-89
2022/11/05 07:00:13;;;;;;;12.95;8.13;;;;;;;5.64;82.54;101590.19;4799490;29;20047;-89
2022/11/05 07:02:39;;;;;;;13.85;9.25;;;;;;;5.70;82.70;101600.63;4787293;29;20435;-90
2022/11/05 07:05:06;;;;;;;16.42;9.45;;;;;;;5.64;83.17;101595.41;4774944;29;20042;-89
2022/11/05 07:07:31;;;;;;;12.27;8.95;;;;;;;5.72;83.43;101605.88;4787156;29;20141;-89
2022/11/05 07:09:56;;;;;;;11.32;9.13;;;;;;;5.72;83.53;101598.00;4790876;29;20492;-89
2022/11/05 07:12:22;;;;;;;12.73;8.85;;;;;;;5.84;83.11;101609.28;4777451;29;20116;-89
2022/11/05 07:14:47;;;;;;;14.10;9.57;;;;;;;5.80;83.10;101602.31;4789061;29;20076;-89
2022/11/05 07:17:12;;;;;;;14.43;9.40;;;;;;;5.83;83.33;101602.28;4794552;29;20039;-89
2022/11/05 07:19:38;;;;;;;14.77;8.40;;;;;;;5.89;83.22;101606.59;4787623;29;20035;-89
2022/11/05 07:22:03;;;;;;;13.20;9.15;;;;;;;5.99;83.25;101621.41;4802011;29;20500;-88
2022/11/05 07:24:29;;;;;;;14.05;9.13;;;;;;;5.95;83.07;101609.19;4774626;29;20030;-89
2022/11/05 07:26:54;;;;;;;14.18;9.20;;;;;;;5.95;82.83;101614.44;4785900;29;20084;-89
2022/11/05 07:29:19;;;;;;;14.10;8.77;;;;;;;5.99;83.32;101613.53;4790843;29;20510;-89
2022/11/05 07:31:45;;;;;;;14.32;9.23;;;;;;;6.11;82.89;101628.31;4795556;29;20035;-88
2022/11/05 07:34:11;;;;;;;21.30;8.88;;;;;;;6.09;83.27;101619.59;4800715;29;20027;-89
2022/11/05 07:36:38;;;;;;;14.05;9.32;;;;;;;6.19;82.79;101625.63;4780847;29;20038;-89
2022/11/05 07:39:03;;;;;;;13.68;9.15;;;;;;;6.10;82.53;101611.69;4766184;29;20022;-89
2022/11/05 07:41:29;;;;;;;14.23;8.95;;;;;;;6.24;83.16;101629.06;4789569;29;20038;-88
2022/11/05 07:43:54;;;;;;;15.77;9.60;;;;;;;6.30;82.86;101619.38;4802282;29;20092;-89
2022/11/05 07:46:19;;;;;;;15.73;9.90;;;;;;;6.34;82.86;101621.09;4798691;29;20095;-88
2022/11/05 07:48:44;;;;;;;15.00;9.05;;;;;;;6.39;83.24;101621.91;4774397;30;20072;-88
2022/11/05 07:51:10;;;;;;;14.88;9.50;;;;;;;6.50;82.82;101624.41;4777217;30;20452;-88
2022/11/05 07:53:35;;;;;;;13.43;8.85;;;;;;;7.04;82.29;101631.66;4791208;29;20046;-87
2022/11/05 07:56:00;;;;;;;16.35;9.02;;;;;;;8.08;79.59;101611.69;4790237;29;20496;-88
2022/11/05 07:58:25;;;;;;;13.88;8.48;;;;;;;9.22;75.96;101628.78;4794222;29;20042;-86
2022/11/05 08:00:51;;;;;;;14.82;8.27;;;;;;;10.03;72.15;101637.47;4804727;29;20534;-86
2022/11/05 08:03:16;;;;;;;11.55;8.20;;;;;;;10.87;69.03;101646.69;4783916;29;20046;-88
2022/11/05 08:05:44;;;;;;;13.10;7.38;;;;;;;11.26;67.14;101648.19;4780264;29;20027;-87
2022/11/05 08:08:16;;;;;;;12.15;8.05;;;;;;;11.47;66.28;101644.88;4793916;29;20058;-86
2022/11/05 08:10:41;;;;;;;10.00;7.27;;;;;;;11.69;65.38;101639.78;4796584;29;20049;-87
2022/11/05 08:13:08;;;;;;;9.45;6.45;;;;;;;12.04;63.88;101643.97;4783323;30;20043;-86
2022/11/05 08:15:34;;;;;;;12.45;6.72;;;;;;;12.94;62.88;101639.91;4780992;29;20499;-86
2022/11/05 08:18:02;;;;;;;12.98;7.43;;;;;;;13.72;60.14;101637.78;4805993;29;20478;-86
2022/11/05 08:20:28;;;;;;;11.13;6.20;;;;;;;14.00;58.76;101640.16;4804719;29;20047;-88
2022/11/05 08:22:54;;;;;;;9.00;5.82;;;;;;;14.35;56.96;101639.59;4804519;29;20030;-86
2022/11/05 08:25:19;;;;;;;9.55;5.72;;;;;;;14.35;56.64;101639.59;4779687;30;20080;-86
2022/11/05 08:27:44;;;;;;;10.38;5.95;;;;;;;14.43;55.38;101635.69;4783983;30;20028;-87
2022/11/05 08:30:10;;;;;;;10.20;5.97;;;;;;;14.73;55.86;101635.28;4780294;29;20130;-87
2022/11/05 08:32:36;;;;;;;14.15;5.90;;;;;;;15.66;54.00;101632.75;4804283;29;20110;-86
2022/11/05 08:35:01;;;;;;;8.07;5.32;;;;;;;16.37;51.01;101636.28;4779767;30;20492;-87
2022/11/05 08:37:26;;;;;;;11.05;5.72;;;;;;;16.36;50.73;101639.88;4795067;29;20457;-86
2022/11/05 08:39:52;;;;;;;10.10;5.80;;;;;;;16.54;49.41;101649.59;4781299;29;20034;-86
2022/11/05 08:42:17;;;;;;;9.75;6.30;;;;;;;16.67;49.51;101655.16;4802920;29;20130;-86
2022/11/05 08:44:42;;;;;;;10.95;6.68;;;;;;;16.82;48.26;101646.38;4795398;29;20046;-86
2022/11/05 08:47:08;;;;;;;9.23;5.47;;;;;;;16.81;48.20;101641.13;4774809;29;20559;-85
2022/11/05 08:49:33;;;;;;;7.32;5.15;;;;;;;16.89;49.25;101643.41;4795693;29;20114;-86
2022/11/05 08:51:58;;;;;;;8.50;5.28;;;;;;;17.55;47.94;101628.09;4805230;29;20110;-85
2022/11/05 08:54:23;;;;;;;13.10;6.07;;;;;;;17.98;45.36;101632.81;4804670;29;20507;-85
2022/11/05 08:56:49;;;;;;;6.10;5.50;;;;;;;17.63;46.30;101641.03;4773977;30;20027;-85
2022/11/05 08:59:14;;;;;;;7.78;5.93;;;;;;;17.17;46.75;101648.97;4779562;29;20031;-85
2022/11/05 09:01:40;;;;;;;7.65;4.97;;;;;;;18.06;46.15;101644.81;4804107;29;20041;-85
2022/11/05 09:04:06;;;;;;;7.53;5.20;;;;;;;18.60;44.49;101650.50;4796600;29;20042;-85
2022/11/05 09:06:31;;;;;;;7.30;5.20;;;;;;;19.01;43.07;101647.09;4799361;29;20471;-85
2022/11/05 09:08:56;;;;;;;11.40;5.50;;;;;;;19.01;43.04;101652.44;4795469;29;20027;-85
2022/11/05 09:11:22;;;;;;;6.28;5.00;;;;;;;19.05;42.73;101645.94;4776439;29;20118;-86
2022/11/05 09:13:47;;;;;;;7.95;5.47;;;;;;;19.41;42.91;101649.94;4781101;30;20030;-85
2022/11/05 09:16:19;;;;;;;7.75;4.65;;;;;;;19.63;42.62;101652.09;4799412;29;20031;-85
2022/11/05 09:18:44;;;;;;;7.65;5.05;;;;;;;19.51;41.05;101650.19;4794827;29;20038;-85
2022/11/05 09:21:09;;;;;;;9.65;5.57;;;;;;;19.60;42.04;101657.69;4802346;29;20059;-86
2022/11/05 09:23:35;;;;;;;6.80;4.95;;;;;;;19.60;41.85;101653.16;4804440;29;20491;-86
2022/11/05 09:26:00;;;;;;;9.50;5.35;;;;;;;20.50;40.36;101648.09;4783319;29;20348;-86
2022/11/05 09:28:27;;;;;;;8.73;5.30;;;;;;;21.32;38.71;101644.97;4780826;30;20122;-86
2022/11/05 09:30:52;;;;;;;6.80;5.05;;;;;;;20.59;39.31;101651.00;4799133;29;20037;-85
2022/11/05 09:33:21;;;;;;;8.20;4.38;;;;;;;20.13;39.96;101653.25;4778997;29;20027;-85
2022/11/05 09:35:46;;;;;;;7.47;5.15;;;;;;;19.51;40.73;101652.88;4775834;29;20062;-86
2022/11/05 09:38:12;;;;;;;7.50;4.85;;;;;;;19.56;41.63;101637.34;4769423;30;20042;-86
2022/11/05 09:40:59;;;;;;;7.88;4.75;;;;;;;21.22;42.42;101651.94;4777987;29;20034;-86
2022/11/05 09:43:34;;;;;;;10.25;4.88;;;;;;;22.35;38.05;101657.00;4799029;29;20062;-86
2022/11/05 09:46:05;;;;;;;8.88;5.03;;;;;;;22.91;37.03;101664.38;4793571;29;20062;-86
2022/11/05 09:48:32;;;;;;;7.28;5.07;;;;;;;22.79;34.94;101662.63;4773857;29;20035;-87
2022/11/05 09:50:58;;;;;;;7.05;4.93;;;;;;;22.45;35.86;101670.63;4796497;29;20531;-86
2022/11/05 09:53:24;;;;;;;5.07;4.57;;;;;;;22.72;34.82;101664.94;4796561;29;20280;-86
2022/11/05 09:55:57;;;;;;;8.32;4.78;;;;;;;22.92;35.71;101664.25;4793827;29;20476;-86
2022/11/05 09:58:54;;;;;;;8.65;4.97;;;;;;;23.47;36.68;101669.75;4789261;29;20549;-86
2022/11/05 10:01:24;;;;;;;6.90;4.65;;;;;;;22.64;34.45;101672.75;4797668;29;20121;-86
2022/11/05 10:03:54;;;;;;;7.53;4.97;;;;;;;23.13;36.69;101672.50;4780335;29;20039;-86
2022/11/05 10:06:23;;;;;;;5.20;4.30;;;;;;;23.62;34.95;101671.19;4782404;29;20499;-86
2022/11/05 10:09:04;;;;;;;7.95;4.38;;;;;;;22.23;38.35;101676.81;4794281;29;20027;-87
2022/11/05 10:11:36;;;;;;;5.75;4.20;;;;;;;20.03;40.46;101684.38;4775318;29;20506;-87
2022/11/05 10:14:12;;;;;;;7.47;4.47;;;;;;;18.04;44.02;101677.94;4803451;29;20039;-87
2022/11/05 10:16:44;;;;;;;7.32;4.65;;;;;;;16.89;48.10;101688.81;4797957;29;20118;-87
2022/11/05 10:19:46;;;;;;;8.18;4.88;;;;;;;16.30;49.86;101688.25;4797955;29;20019;-87
2022/11/05 10:22:17;;;;;;;7.68;4.85;;;;;;;15.42;52.09;101696.06;4780438;29;20051;-88
2022/11/05 10:24:45;;;;;;;7.90;5.85;;;;;;;14.88;53.03;101695.84;4797870;29;20054;-87
2022/11/05 10:27:18;;;;;;;6.47;4.95;;;;;;;14.61;53.99;101689.94;4798316;29;20816;-87
2022/11/05 10:29:45;;;;;;;7.15;4.95;;;;;;;14.59;54.54;101686.47;4774124;29;20238;-87
2022/11/05 10:32:35;;;;;;;9.25;5.18;;;;;;;14.73;55.04;101697.38;4776542;29;20031;-87
2022/11/05 10:35:04;;;;;;;9.32;5.32;;;;;;;14.64;55.09;101713.75;4777095;29;20500;-88
2022/11/05 10:37:30;;;;;;;8.55;5.65;;;;;;;14.34;55.85;101693.75;4777072;30;20024;-87
2022/11/05 10:39:56;;;;;;;7.30;5.05;;;;;;;14.18;55.74;101686.41;4784272;29;20527;-87
2022/11/05 10:42:55;;;;;;;7.70;5.38;;;;;;;13.90;56.86;101702.63;4798400;29;20345;-88
2022/11/05 10:45:58;;;;;;;9.63;5.35;;;;;;;13.99;57.23;101701.41;4786918;29;20035;-87
2022/11/05 10:48:42;;;;;;;;;;;;;;;14.02;56.19;101703.91;4786912;29;20039;-88
2022/11/05 10:51:08;;;;;;;6.82;5.32;;;;;;;13.60;57.37;101687.88;4799615;29;20038;-87
2022/11/05 10:53:35;;;;;;;8.98;5.35;;;;;;;13.59;58.03;101692.34;4801326;29;20566;-87
2022/11/05 10:56:01;;;;;;;9.20;5.22;;;;;;;13.37;58.62;101683.47;4794529;29;20477;-87
2022/11/05 10:58:29;;;;;;;8.20;5.80;;;;;;;13.43;58.39;101691.19;4781114;29;20040;-87
2022/11/05 11:00:54;;;;;;;8.65;5.60;;;;;;;13.44;59.89;101690.28;4778749;29;20154;-88
2022/11/05 11:03:33;;;;;;;11.23;5.67;;;;;;;13.27;59.03;101699.75;4791272;29;20058;-87
2022/11/05 11:06:02;;;;;;;12.32;5.80;;;;;;;13.12;58.78;101702.94;4792017;29;20307;-87
2022/11/05 11:08:29;;;;;;;8.48;5.55;;;;;;;13.13;60.07;101699.38;4797521;29;20118;-87
2022/11/05 11:10:58;;;;;;;10.13;5.32;;;;;;;13.10;60.73;101696.81;4784864;29;20628;-87
2022/11/05 11:13:45;;;;;;;7.75;5.20;;;;;;;13.02;61.11;101675.00;4775822;29;20048;-87
2022/11/05 11:16:18;;;;;;;11.32;6.18;;;;;;;13.10;60.77;101682.66;4774671;29;20039;-88
2022/11/05 11:18:43;;;;;;;13.98;6.30;;;;;;;13.19;60.79;101688.50;4795299;29;20054;-87
2022/11/05 11:21:18;;;;;;;10.57;6.00;;;;;;;13.09;60.57;101681.81;4782656;29;20055;-87
2022/11/05 11:24:01;;;;;;;9.85;6.15;;;;;;;13.16;60.50;101693.94;4766897;30;20031;-87
2022/11/05 11:26:36;;;;;;;;;;;;;;;13.35;59.96;101686.19;4780313;30;20452;-87
2022/11/05 11:29:12;;;;;;;9.38;5.80;;;;;;;13.24;61.15;101689.25;4763181;29;20012;-88
2022/11/05 11:31:39;;;;;;;9.48;6.05;;;;;;;13.07;60.42;101675.72;4784235;30;20046;-87
2022/11/05 11:34:18;;;;;;;16.15;6.03;;;;;;;13.36;60.00;101673.78;4784777;29;20035;-88
2022/11/05 11:36:46;;;;;;;9.57;6.35;;;;;;;13.13;60.27;101670.16;4770760;29;20195;-88
2022/11/05 11:39:31;;;;;;;8.93;5.97;;;;;;;13.44;59.98;101677.88;4745015;29;20484;-88
2022/11/05 11:42:04;;;;;;;11.07;6.00;;;;;;;13.64;59.61;101686.84;4782793;29;20051;-87
2022/11/05 11:44:35;;;;;;;7.90;5.63;;;;;;;13.92;58.29;101673.31;4751021;30;20032;-87
2022/11/05 11:47:08;;;;;;;12.35;5.50;;;;;;;14.23;57.01;101668.47;4779225;30;20032;-87
2022/11/05 11:49:50;;;;;;;7.40;5.47;;;;;;;14.31;56.73;101676.09;4750804;30;20038;-87
2022/11/05 11:52:17;;;;;;;7.93;5.28;;;;;;;14.96;56.60;101660.88;4783858;29;20035;-87
2022/11/05 11:54:42;;;;;;;8.63;5.60;;;;;;;16.79;50.84;101680.41;4768448;30;20043;-88
2022/11/05 11:57:26;;;;;;;9.50;5.30;;;;;;;17.99;47.59;101663.97;4756771;30;20028;-88
2022/11/05 11:59:53;;;;;;;8.93;4.85;;;;;;;18.86;44.79;101669.50;4784033;30;20412;-88
2022/11/05 12:02:45;;;;;;;9.13;5.25;;;;;;;19.47;45.17;101679.03;4765352;30;20124;-87
2022/11/05 12:05:31;;;;;;;6.43;4.63;;;;;;;19.57;44.42;101671.25;4779657;29;20043;-88
2022/11/05 12:08:13;;;;;;;6.93;3.80;;;;;;;19.81;40.62;101668.81;4778554;29;20490;-88
2022/11/05 12:10:52;;;;;;;9.48;4.55;;;;;;;19.41;43.10;101663.34;4775513;30;20037;-87
2022/11/05 12:13:17;;;;;;;7.00;4.05;;;;;;;18.65;44.71;101665.41;4784166;29;20028;-87
2022/11/05 12:15:52;;;;;;;7.43;4.57;;;;;;;17.97;46.21;101665.88;4780879;29;20058;-88
2022/11/05 12:18:39;;;;;;;6.00;3.50;;;;;;;16.56;48.25;101670.91;4769076;30;20831;-88
2022/11/05 12:21:05;;;;;;;9.52;4.70;;;;;;;16.00;51.59;101674.66;4783661;30;20132;-88